createdAt,value
2017-03-16T00:00:39.189Z,57.32
2017-03-16T00:01:27.206Z,58.16
2017-03-16T00:02:37.561Z,58.32
2017-03-16T00:03:44.714Z,58.41
2017-03-16T00:04:28.239Z,58.46
2017-03-16T00:05:44.038Z,58.51
2017-03-16T00:06:37.657Z,58.54
2017-03-16T00:07:43.745Z,58.58
2017-03-16T00:08:44.674Z,58.60
2017-03-16T00:09:31.408Z,58.62
2017-03-16T00:10:26.084Z,58.64
2017-03-16T00:11:27.466Z,58.66
2017-03-16T00:12:25.464Z,58.68
2017-03-16T00:13:26.079Z,58.69
2017-03-16T00:14:28.436Z,58.72
2017-03-16T00:15:28.137Z,58.72
2017-03-16T00:16:30.230Z,58.73
2017-03-16T00:17:28.151Z,58.74
2017-03-16T00:18:24.370Z,58.72
2017-03-16T00:19:33.161Z,57.84
2017-03-16T00:20:25.512Z,57.65
2017-03-16T00:21:36.285Z,57.56
2017-03-16T00:22:31.298Z,57.51
2017-03-16T00:23:42.531Z,57.48
2017-03-16T00:24:42.914Z,57.46
2017-03-16T00:25:50.239Z,57.43
2017-03-16T00:26:33.214Z,57.43
2017-03-16T00:27:49.224Z,57.43
2017-03-16T00:28:36.401Z,57.42
2017-03-16T00:29:32.932Z,57.42
2017-03-16T00:30:28.971Z,57.42
2017-03-16T00:31:32.437Z,57.41
2017-03-16T00:32:33.586Z,57.38
2017-03-16T00:33:23.762Z,57.42
2017-03-16T00:34:33.061Z,57.43
2017-03-16T00:35:29.922Z,57.44
2017-03-16T00:36:32.285Z,57.43
2017-03-16T00:37:30.243Z,57.45
2017-03-16T00:38:36.108Z,58.34
2017-03-16T00:39:39.913Z,58.58
2017-03-16T00:40:30.099Z,58.70
2017-03-16T00:41:27.467Z,58.76
2017-03-16T00:42:43.630Z,58.81
2017-03-16T00:43:31.825Z,58.71
2017-03-16T00:44:32.957Z,57.95
2017-03-16T00:45:27.750Z,57.82
2017-03-16T00:46:37.913Z,57.69
2017-03-16T00:47:37.225Z,57.66
2017-03-16T00:48:42.402Z,57.63
2017-03-16T00:49:49.484Z,57.61
2017-03-16T00:50:49.562Z,57.91
2017-03-16T00:51:39.883Z,58.52
2017-03-16T00:52:42.846Z,58.72
2017-03-16T00:53:44.531Z,58.84
2017-03-16T00:54:43.558Z,58.88
2017-03-16T00:55:36.315Z,58.94
2017-03-16T00:56:25.366Z,58.98
2017-03-16T00:57:33.730Z,59.00
2017-03-16T00:58:24.970Z,59.02
2017-03-16T00:59:26.608Z,59.03
2017-03-16T01:00:22.996Z,59.04
2017-03-16T01:01:32.903Z,59.05
2017-03-16T01:02:49.236Z,59.06
2017-03-16T01:03:47.739Z,59.07
2017-03-16T01:04:33.350Z,59.08
2017-03-16T01:05:37.582Z,59.08
2017-03-16T01:06:52.224Z,59.11
2017-03-16T01:07:41.625Z,59.10
2017-03-16T01:08:27.297Z,59.11
2017-03-16T01:09:40.395Z,59.12
2017-03-16T01:10:43.624Z,59.13
2017-03-16T01:11:38.861Z,59.12
2017-03-16T01:12:45.027Z,59.16
2017-03-16T01:13:32.120Z,59.15
2017-03-16T01:14:38.707Z,59.16
2017-03-16T01:15:32.525Z,59.17
2017-03-16T01:16:30.426Z,59.16
2017-03-16T01:17:23.164Z,59.19
2017-03-16T01:18:26.140Z,59.18
2017-03-16T01:19:48.483Z,59.21
2017-03-16T01:20:44.450Z,59.19
2017-03-16T01:21:58.046Z,59.20
2017-03-16T01:22:44.295Z,59.20
2017-03-16T01:23:42.766Z,59.20
2017-03-16T01:24:32.566Z,59.21
2017-03-16T01:25:28.067Z,59.22
2017-03-16T01:26:30.592Z,59.23
2017-03-16T01:27:34.770Z,59.22
2017-03-16T01:28:30.617Z,59.24
2017-03-16T01:29:27.680Z,59.25
2017-03-16T01:30:37.265Z,59.26
2017-03-16T01:31:40.123Z,59.27
2017-03-16T01:32:36.209Z,59.28
2017-03-16T01:33:18.776Z,59.27
2017-03-16T01:34:30.250Z,59.28
2017-03-16T01:35:23.706Z,59.27
2017-03-16T01:36:43.497Z,59.28
2017-03-16T01:37:42.971Z,59.30
2017-03-16T01:38:43.475Z,59.25
2017-03-16T01:39:36.268Z,58.40
2017-03-16T01:40:31.798Z,58.20
2017-03-16T01:41:27.538Z,58.11
2017-03-16T01:42:43.201Z,58.06
2017-03-16T01:43:46.906Z,58.02
2017-03-16T01:44:23.116Z,58.01
2017-03-16T01:45:34.019Z,58.01
2017-03-16T01:46:21.729Z,58.05
2017-03-16T01:47:39.933Z,58.07
2017-03-16T01:48:37.769Z,58.07
2017-03-16T01:49:32.578Z,58.06
2017-03-16T01:50:31.801Z,58.10
2017-03-16T01:51:31.227Z,58.10
2017-03-16T01:52:20.807Z,58.26
2017-03-16T01:53:38.559Z,58.14
2017-03-16T01:54:39.817Z,58.16
2017-03-16T01:55:38.014Z,58.50
2017-03-16T01:56:32.715Z,59.12
2017-03-16T01:57:33.084Z,59.32
2017-03-16T01:58:32.873Z,59.43
2017-03-16T01:59:28.242Z,59.51
2017-03-16T02:00:39.595Z,59.56
2017-03-16T02:01:28.123Z,59.59
2017-03-16T02:02:27.999Z,59.61
2017-03-16T02:03:33.283Z,59.65
2017-03-16T02:04:43.900Z,59.66
2017-03-16T02:05:26.826Z,59.68
2017-03-16T02:06:34.064Z,59.68
2017-03-16T02:07:27.933Z,59.70
2017-03-16T02:08:37.674Z,59.73
2017-03-16T02:09:34.603Z,59.73
2017-03-16T02:10:36.660Z,59.74
2017-03-16T02:11:23.251Z,59.75
2017-03-16T02:12:27.209Z,59.75
2017-03-16T02:13:39.646Z,59.76
2017-03-16T02:14:21.108Z,59.78
2017-03-16T02:15:33.421Z,59.77
2017-03-16T02:16:28.227Z,59.78
2017-03-16T02:17:32.256Z,59.76
2017-03-16T02:18:44.602Z,59.77
2017-03-16T02:19:45.116Z,59.78
2017-03-16T02:20:33.467Z,59.79
2017-03-16T02:21:29.508Z,59.79
2017-03-16T02:22:32.856Z,59.79
2017-03-16T02:23:26.821Z,59.79
2017-03-16T02:24:33.690Z,59.78
2017-03-16T02:25:21.813Z,59.78
2017-03-16T02:26:32.800Z,59.78
2017-03-16T02:27:26.951Z,59.78
2017-03-16T02:28:32.959Z,59.77
2017-03-16T02:29:37.839Z,59.78
2017-03-16T02:30:51.151Z,59.77
2017-03-16T02:31:46.337Z,59.75
2017-03-16T02:32:37.752Z,59.78
2017-03-16T02:33:37.680Z,59.76
2017-03-16T02:34:42.700Z,59.63
2017-03-16T02:35:44.673Z,58.85
2017-03-16T02:36:52.745Z,58.64
2017-03-16T02:37:43.525Z,58.51
2017-03-16T02:38:40.960Z,59.35
2017-03-16T02:39:29.909Z,59.52
2017-03-16T02:40:39.888Z,59.62
2017-03-16T02:41:43.333Z,59.67
2017-03-16T02:42:38.510Z,59.72
2017-03-16T02:43:28.557Z,59.72
2017-03-16T02:44:31.386Z,59.76
2017-03-16T02:45:29.947Z,59.84
2017-03-16T02:46:29.550Z,59.78
2017-03-16T02:47:32.702Z,59.79
2017-03-16T02:48:26.770Z,59.81
2017-03-16T02:49:37.781Z,59.81
2017-03-16T02:50:42.175Z,59.82
2017-03-16T02:51:44.247Z,59.80
2017-03-16T02:52:26.024Z,59.81
2017-03-16T02:53:37.699Z,59.82
2017-03-16T02:54:50.082Z,59.82
2017-03-16T02:55:53.182Z,59.83
2017-03-16T02:56:37.111Z,59.84
2017-03-16T02:57:43.459Z,59.85
2017-03-16T02:58:49.535Z,59.85
2017-03-16T02:59:46.038Z,59.85
2017-03-16T03:00:53.177Z,59.85
2017-03-16T03:01:45.944Z,59.86
2017-03-16T03:02:44.033Z,59.86
2017-03-16T03:03:48.898Z,59.86
2017-03-16T03:04:33.780Z,59.86
2017-03-16T03:05:24.466Z,59.87
2017-03-16T03:06:39.673Z,59.86
2017-03-16T03:07:33.282Z,59.85
2017-03-16T03:08:35.609Z,59.85
2017-03-16T03:09:31.831Z,59.83
2017-03-16T03:10:26.791Z,59.84
2017-03-16T03:11:46.140Z,59.85
2017-03-16T03:12:38.668Z,59.82
2017-03-16T03:13:33.512Z,59.82
2017-03-16T03:14:38.353Z,59.83
2017-03-16T03:15:32.675Z,59.83
2017-03-16T03:16:27.678Z,59.84
2017-03-16T03:17:27.519Z,59.85
2017-03-16T03:18:29.987Z,59.84
2017-03-16T03:19:33.882Z,59.84
2017-03-16T03:20:26.624Z,59.83
2017-03-16T03:21:28.368Z,59.83
2017-03-16T03:22:32.065Z,59.83
2017-03-16T03:23:38.627Z,59.82
2017-03-16T03:24:35.562Z,59.82
2017-03-16T03:25:23.603Z,59.82
2017-03-16T03:26:33.940Z,59.83
2017-03-16T03:27:38.118Z,59.84
2017-03-16T03:28:26.349Z,59.85
2017-03-16T03:29:33.755Z,59.87
2017-03-16T03:30:33.089Z,59.86
2017-03-16T03:31:27.291Z,59.87
2017-03-16T03:32:26.405Z,59.86
2017-03-16T03:33:35.322Z,59.87
2017-03-16T03:34:35.587Z,59.87
2017-03-16T03:35:38.488Z,59.89
2017-03-16T03:36:37.877Z,59.91
2017-03-16T03:37:34.084Z,59.90
2017-03-16T03:38:32.355Z,59.91
2017-03-16T03:39:26.824Z,59.90
2017-03-16T03:40:30.182Z,59.92
2017-03-16T03:41:32.617Z,59.93
2017-03-16T03:42:27.548Z,59.92
2017-03-16T03:43:43.861Z,59.94
2017-03-16T03:44:33.400Z,59.96
2017-03-16T03:45:42.367Z,59.95
2017-03-16T03:46:37.437Z,59.97
2017-03-16T03:47:32.452Z,59.96
2017-03-16T03:48:34.220Z,59.96
2017-03-16T03:49:43.851Z,59.96
2017-03-16T03:50:48.007Z,59.96
2017-03-16T03:51:45.655Z,59.96
2017-03-16T03:52:27.577Z,59.98
2017-03-16T03:53:35.465Z,59.99
2017-03-16T03:54:31.379Z,59.99
2017-03-16T03:55:32.902Z,59.99
2017-03-16T03:56:36.978Z,59.99
2017-03-16T03:57:30.679Z,59.98
2017-03-16T03:58:45.973Z,59.99
2017-03-16T03:59:43.869Z,60.00
2017-03-16T04:00:27.702Z,60.00
2017-03-16T04:01:28.353Z,59.99
2017-03-16T04:02:32.856Z,59.99
2017-03-16T04:03:50.687Z,60.00
2017-03-16T04:04:49.063Z,60.00
2017-03-16T04:05:37.982Z,60.00
2017-03-16T04:06:32.148Z,60.00
2017-03-16T04:07:29.530Z,60.01
2017-03-16T04:08:44.384Z,60.01
2017-03-16T04:09:47.321Z,60.03
2017-03-16T04:10:32.692Z,60.03
2017-03-16T04:11:33.085Z,60.03
2017-03-16T04:12:45.278Z,60.03
2017-03-16T04:13:32.103Z,59.91
2017-03-16T04:14:31.160Z,59.14
2017-03-16T04:15:31.244Z,58.97
2017-03-16T04:16:47.599Z,59.71
2017-03-16T04:17:37.999Z,59.86
2017-03-16T04:18:37.842Z,59.94
2017-03-16T04:19:31.255Z,59.97
2017-03-16T04:20:33.882Z,59.99
2017-03-16T04:21:33.333Z,59.99
2017-03-16T04:22:36.981Z,60.02
2017-03-16T04:23:29.947Z,60.01
2017-03-16T04:24:38.194Z,60.02
2017-03-16T04:25:26.587Z,60.01
2017-03-16T04:26:34.881Z,60.04
2017-03-16T04:27:53.522Z,60.05
2017-03-16T04:28:32.647Z,59.95
2017-03-16T04:29:25.491Z,59.11
2017-03-16T04:30:28.488Z,58.90
2017-03-16T04:31:24.232Z,58.78
2017-03-16T04:32:32.838Z,58.73
2017-03-16T04:33:45.425Z,58.68
2017-03-16T04:34:42.624Z,58.64
2017-03-16T04:35:35.353Z,58.63
2017-03-16T04:36:35.607Z,58.65
2017-03-16T04:37:32.462Z,59.51
2017-03-16T04:38:28.836Z,59.72
2017-03-16T04:39:45.801Z,59.82
2017-03-16T04:40:29.976Z,59.88
2017-03-16T04:41:46.304Z,59.91
2017-03-16T04:42:38.163Z,59.94
2017-03-16T04:43:43.281Z,59.96
2017-03-16T04:44:39.836Z,59.97
2017-03-16T04:45:29.500Z,59.99
2017-03-16T04:46:36.321Z,60.00
2017-03-16T04:47:27.076Z,59.99
2017-03-16T04:48:33.109Z,60.01
2017-03-16T04:49:37.743Z,60.01
2017-03-16T04:50:31.984Z,60.02
2017-03-16T04:51:24.443Z,60.02
2017-03-16T04:52:31.455Z,60.02
2017-03-16T04:53:32.299Z,60.01
2017-03-16T04:54:37.665Z,60.01
2017-03-16T04:55:28.441Z,60.00
2017-03-16T04:56:41.815Z,60.00
2017-03-16T04:57:45.149Z,60.00
2017-03-16T04:58:30.438Z,60.00
2017-03-16T04:59:21.922Z,60.00
2017-03-16T05:00:38.061Z,60.00
2017-03-16T05:01:51.143Z,60.01
2017-03-16T05:02:31.366Z,60.02
2017-03-16T05:03:43.353Z,60.01
2017-03-16T05:04:40.081Z,60.01
2017-03-16T05:05:35.278Z,60.02
2017-03-16T05:06:31.781Z,60.02
2017-03-16T05:07:36.625Z,60.01
2017-03-16T05:08:26.411Z,60.02
2017-03-16T05:09:38.172Z,60.03
2017-03-16T05:10:28.761Z,60.03
2017-03-16T05:11:43.037Z,60.03
2017-03-16T05:12:30.108Z,60.01
2017-03-16T05:13:28.887Z,60.02
2017-03-16T05:14:33.515Z,60.01
2017-03-16T05:15:43.953Z,60.02
2017-03-16T05:16:37.663Z,60.02
2017-03-16T05:17:33.637Z,60.05
2017-03-16T05:18:35.323Z,59.11
2017-03-16T05:19:35.386Z,58.91
2017-03-16T05:20:48.148Z,59.71
2017-03-16T05:21:32.119Z,59.88
2017-03-16T05:22:37.153Z,59.95
2017-03-16T05:23:37.027Z,59.99
2017-03-16T05:24:36.748Z,60.02
2017-03-16T05:25:47.072Z,60.04
2017-03-16T05:26:37.089Z,60.04
2017-03-16T05:27:26.531Z,60.04
2017-03-16T05:28:32.887Z,60.05
2017-03-16T05:29:40.164Z,60.05
2017-03-16T05:30:28.089Z,60.06
2017-03-16T05:31:54.842Z,60.00
2017-03-16T05:32:45.080Z,60.05
2017-03-16T05:33:54.198Z,60.05
2017-03-16T05:34:51.545Z,60.05
2017-03-16T05:35:56.651Z,60.06
2017-03-16T05:36:45.158Z,60.05
2017-03-16T05:37:38.081Z,60.05
2017-03-16T05:38:46.179Z,60.03
2017-03-16T05:39:39.105Z,60.04
2017-03-16T05:40:43.817Z,60.04
2017-03-16T05:41:40.060Z,60.05
2017-03-16T05:42:37.031Z,60.03
2017-03-16T05:43:27.140Z,60.03
2017-03-16T05:44:36.511Z,60.03
2017-03-16T05:45:37.050Z,60.02
2017-03-16T05:46:31.344Z,60.03
2017-03-16T05:47:33.743Z,60.02
2017-03-16T05:48:47.347Z,60.03
2017-03-16T05:49:43.770Z,60.03
2017-03-16T05:50:44.040Z,60.04
2017-03-16T05:51:47.748Z,60.04
2017-03-16T05:52:33.264Z,60.04
2017-03-16T05:53:57.264Z,60.03
2017-03-16T05:54:43.615Z,60.03
2017-03-16T05:55:46.571Z,60.03
2017-03-16T05:56:27.563Z,60.03
2017-03-16T05:57:47.015Z,60.02
2017-03-16T05:58:50.873Z,60.02
2017-03-16T05:59:45.239Z,60.04
2017-03-16T06:00:49.781Z,60.03
2017-03-16T06:01:39.171Z,60.04
2017-03-16T06:02:42.250Z,60.02
2017-03-16T06:03:43.791Z,60.04
2017-03-16T06:04:37.713Z,60.04
2017-03-16T06:06:39.002Z,58.90
2017-03-16T06:07:38.092Z,58.91
2017-03-16T06:08:42.601Z,58.72
2017-03-16T06:09:44.553Z,58.78
2017-03-16T06:10:33.901Z,59.55
2017-03-16T06:11:50.110Z,59.74
2017-03-16T06:12:27.081Z,59.84
2017-03-16T06:13:42.714Z,59.89
2017-03-16T06:14:42.033Z,59.92
2017-03-16T06:15:35.315Z,59.94
2017-03-16T06:16:42.002Z,59.96
2017-03-16T06:17:25.155Z,59.97
2017-03-16T06:18:45.790Z,59.97
2017-03-16T06:19:33.122Z,59.99
2017-03-16T06:20:31.803Z,60.00
2017-03-16T06:21:49.755Z,60.01
2017-03-16T06:22:42.569Z,60.02
2017-03-16T06:23:33.533Z,60.03
2017-03-16T06:24:34.278Z,60.03
2017-03-16T06:25:47.102Z,60.04
2017-03-16T06:26:38.303Z,59.92
2017-03-16T06:27:37.104Z,59.11
2017-03-16T06:28:37.613Z,58.91
2017-03-16T06:29:27.088Z,58.86
2017-03-16T06:30:36.099Z,59.66
2017-03-16T06:31:33.861Z,59.83
2017-03-16T06:32:37.664Z,59.91
2017-03-16T06:33:27.685Z,59.96
2017-03-16T06:35:21.126Z,59.99
2017-03-16T06:37:16.662Z,60.02
2017-03-16T06:37:49.471Z,60.03
2017-03-16T06:38:35.975Z,60.05
2017-03-16T06:39:37.706Z,60.06
2017-03-16T06:40:47.036Z,60.05
2017-03-16T06:41:37.450Z,60.07
2017-03-16T06:42:37.835Z,60.08
2017-03-16T06:43:33.505Z,59.96
2017-03-16T06:44:37.992Z,59.17
2017-03-16T06:45:38.530Z,59.11
2017-03-16T06:46:34.104Z,59.80
2017-03-16T06:47:43.605Z,59.96
2017-03-16T06:48:26.164Z,60.04
2017-03-16T06:49:37.690Z,60.10
2017-03-16T06:50:50.038Z,60.15
2017-03-16T06:51:45.014Z,60.20
2017-03-16T06:52:50.076Z,60.24
2017-03-16T06:54:00.892Z,60.25
2017-03-16T06:54:57.543Z,60.36
2017-03-16T06:56:06.205Z,60.48
2017-03-16T06:56:50.891Z,60.60
2017-03-16T06:57:51.056Z,60.55
2017-03-16T06:58:50.481Z,60.76
2017-03-16T06:59:59.231Z,60.90
2017-03-16T07:00:51.282Z,60.97
2017-03-16T07:01:52.938Z,60.81
2017-03-16T07:02:49.021Z,60.65
2017-03-16T07:03:50.707Z,60.29
2017-03-16T07:04:54.648Z,60.19
2017-03-16T07:05:50.304Z,61.63
2017-03-16T07:06:51.854Z,60.98
2017-03-16T07:07:50.143Z,58.49
2017-03-16T07:08:49.556Z,57.42
2017-03-16T07:09:46.582Z,56.90
2017-03-16T07:10:48.441Z,56.38
2017-03-16T07:11:50.043Z,56.57
2017-03-16T07:12:43.185Z,56.70
2017-03-16T07:13:49.704Z,56.95
2017-03-16T07:15:03.927Z,57.22
2017-03-16T07:16:01.027Z,56.70
2017-03-16T07:16:50.970Z,57.02
2017-03-16T07:18:00.104Z,57.87
2017-03-16T07:18:44.387Z,58.50
2017-03-16T07:19:56.725Z,58.82
2017-03-16T07:20:46.373Z,59.27
2017-03-16T07:22:01.931Z,59.54
2017-03-16T07:22:55.188Z,59.70
2017-03-16T07:23:50.156Z,59.78
2017-03-16T07:24:55.236Z,59.91
2017-03-16T07:25:54.335Z,59.96
2017-03-16T07:27:04.996Z,60.06
2017-03-16T07:27:53.658Z,60.11
2017-03-16T07:28:51.511Z,60.14
2017-03-16T07:30:00.131Z,60.15
2017-03-16T07:30:54.964Z,60.19
2017-03-16T07:31:50.316Z,60.26
2017-03-16T07:32:50.493Z,60.26
2017-03-16T07:33:54.189Z,60.24
2017-03-16T07:34:57.330Z,60.27
2017-03-16T07:35:55.000Z,60.20
2017-03-16T07:36:49.833Z,60.18
2017-03-16T07:37:48.569Z,60.09
2017-03-16T07:39:05.966Z,60.03
2017-03-16T07:40:02.756Z,59.93
2017-03-16T07:41:06.661Z,59.89
2017-03-16T07:42:07.543Z,59.79
2017-03-16T07:43:00.741Z,59.72
2017-03-16T07:43:50.144Z,59.66
2017-03-16T07:45:00.328Z,59.57
2017-03-16T07:45:49.609Z,59.41
2017-03-16T07:47:16.393Z,58.56
2017-03-16T07:48:07.793Z,58.27
2017-03-16T07:48:54.573Z,59.05
2017-03-16T07:49:55.915Z,59.12
2017-03-16T07:51:01.650Z,59.18
2017-03-16T07:51:57.178Z,59.14
2017-03-16T07:52:56.517Z,59.07
2017-03-16T07:53:48.742Z,59.05
2017-03-16T07:54:50.177Z,59.03
2017-03-16T07:55:55.159Z,59.01
2017-03-16T07:56:57.205Z,58.98
2017-03-16T07:57:43.817Z,58.95
2017-03-16T07:58:53.664Z,58.00
2017-03-16T07:59:44.101Z,57.76
2017-03-16T08:00:45.788Z,57.63
2017-03-16T08:01:46.898Z,57.55
2017-03-16T08:03:07.089Z,57.38
2017-03-16T08:03:55.928Z,57.41
2017-03-16T08:05:07.076Z,57.38
2017-03-16T08:05:57.713Z,57.33
2017-03-16T08:06:50.048Z,57.31
2017-03-16T08:07:56.878Z,57.27
2017-03-16T08:08:50.264Z,57.24
2017-03-16T08:09:54.892Z,57.20
2017-03-16T08:10:50.661Z,57.17
2017-03-16T08:11:55.685Z,57.17
2017-03-16T08:12:50.860Z,57.15
2017-03-16T08:14:01.053Z,57.13
2017-03-16T08:14:59.373Z,57.11
2017-03-16T08:15:52.915Z,57.08
2017-03-16T08:16:44.189Z,57.25
2017-03-16T08:17:55.698Z,57.95
2017-03-16T08:18:50.201Z,58.12
2017-03-16T08:19:53.264Z,58.21
2017-03-16T08:20:53.254Z,58.28
2017-03-16T08:21:54.773Z,58.30
2017-03-16T08:22:57.357Z,58.31
2017-03-16T08:23:55.225Z,58.32
2017-03-16T08:25:06.283Z,58.33
2017-03-16T08:26:00.577Z,58.33
2017-03-16T08:27:00.174Z,58.32
2017-03-16T08:28:01.061Z,58.31
2017-03-16T08:29:06.864Z,58.31
2017-03-16T08:30:21.469Z,58.30
2017-03-16T08:30:54.683Z,58.30
2017-03-16T08:31:54.857Z,58.29
2017-03-16T08:32:51.854Z,58.27
2017-03-16T08:33:54.347Z,58.28
2017-03-16T08:34:50.799Z,58.27
2017-03-16T08:35:54.861Z,58.25
2017-03-16T08:36:46.420Z,58.26
2017-03-16T08:38:10.989Z,58.24
2017-03-16T08:39:43.456Z,58.24
2017-03-16T08:40:04.725Z,58.22
2017-03-16T08:41:07.911Z,58.21
2017-03-16T08:41:51.923Z,58.21
2017-03-16T08:42:43.714Z,58.19
2017-03-16T08:43:55.297Z,58.18
2017-03-16T08:45:00.592Z,58.17
2017-03-16T08:45:50.633Z,58.16
2017-03-16T08:46:50.707Z,58.16
2017-03-16T08:47:56.665Z,58.14
2017-03-16T08:48:46.845Z,58.13
2017-03-16T08:49:50.687Z,58.13
2017-03-16T08:50:56.753Z,58.13
2017-03-16T08:51:57.702Z,58.11
2017-03-16T08:52:55.559Z,58.10
2017-03-16T08:53:54.428Z,57.96
2017-03-16T08:54:47.680Z,57.20
2017-03-16T08:55:44.177Z,57.29
2017-03-16T08:56:49.962Z,57.75
2017-03-16T08:58:02.142Z,57.88
2017-03-16T08:58:57.700Z,57.94
2017-03-16T08:59:52.954Z,57.95
2017-03-16T09:01:02.874Z,57.98
2017-03-16T09:01:57.128Z,57.97
2017-03-16T09:02:54.373Z,57.98
2017-03-16T09:03:49.828Z,57.97
2017-03-16T09:05:03.405Z,57.99
2017-03-16T09:05:55.095Z,57.98
2017-03-16T09:06:53.055Z,57.97
2017-03-16T09:07:50.568Z,57.96
2017-03-16T09:08:51.243Z,57.94
2017-03-16T09:10:00.307Z,57.93
2017-03-16T09:10:48.865Z,57.92
2017-03-16T09:11:53.448Z,57.90
2017-03-16T09:12:55.185Z,57.91
2017-03-16T09:13:50.339Z,57.90
2017-03-16T09:14:55.226Z,57.88
2017-03-16T09:15:56.413Z,57.89
2017-03-16T09:16:54.213Z,57.90
2017-03-16T09:17:55.198Z,57.89
2017-03-16T09:18:56.192Z,57.88
2017-03-16T09:19:56.821Z,57.89
2017-03-16T09:20:51.014Z,57.88
2017-03-16T09:21:54.559Z,57.85
2017-03-16T09:22:49.440Z,57.86
2017-03-16T09:23:55.189Z,57.86
2017-03-16T09:24:23.657Z,57.85
2017-03-16T09:25:51.360Z,57.72
2017-03-16T09:27:00.597Z,57.83
2017-03-16T09:27:59.754Z,57.84
2017-03-16T09:28:55.331Z,57.83
2017-03-16T09:29:49.629Z,57.83
2017-03-16T09:30:46.340Z,57.82
2017-03-16T09:31:55.357Z,57.83
2017-03-16T09:32:56.406Z,57.82
2017-03-16T09:33:58.590Z,57.82
2017-03-16T09:34:52.814Z,57.81
2017-03-16T09:35:51.234Z,57.81
2017-03-16T09:37:00.099Z,57.80
2017-03-16T09:37:53.364Z,57.80
2017-03-16T09:38:50.755Z,57.79
2017-03-16T09:39:50.170Z,57.79
2017-03-16T09:40:48.539Z,57.80
2017-03-16T09:41:50.021Z,57.79
2017-03-16T09:43:00.343Z,57.78
2017-03-16T09:43:59.688Z,57.76
2017-03-16T09:45:17.104Z,57.78
2017-03-16T09:45:50.451Z,57.76
2017-03-16T09:47:06.465Z,57.76
2017-03-16T09:47:56.150Z,57.75
2017-03-16T09:48:55.301Z,57.74
2017-03-16T09:49:52.697Z,57.73
2017-03-16T09:50:50.724Z,57.73
2017-03-16T09:51:59.047Z,57.73
2017-03-16T09:52:44.498Z,57.73
2017-03-16T09:53:50.102Z,57.72
2017-03-16T09:54:55.843Z,57.72
2017-03-16T09:55:51.265Z,57.72
2017-03-16T09:56:51.485Z,57.72
2017-03-16T09:57:50.734Z,57.71
2017-03-16T09:59:02.731Z,57.71
2017-03-16T09:59:55.176Z,57.71
2017-03-16T10:00:47.770Z,57.71
2017-03-16T10:02:00.278Z,57.71
2017-03-16T10:02:58.903Z,57.72
2017-03-16T10:03:56.163Z,57.72
2017-03-16T10:05:05.218Z,57.70
2017-03-16T10:05:53.376Z,57.70
2017-03-16T10:06:55.523Z,57.70
2017-03-16T10:07:46.842Z,57.69
2017-03-16T10:09:07.068Z,57.68
2017-03-16T10:09:51.495Z,57.70
2017-03-16T10:10:55.367Z,57.70
2017-03-16T10:11:51.069Z,57.68
2017-03-16T10:12:54.725Z,57.68
2017-03-16T10:13:54.062Z,57.68
2017-03-16T10:14:49.180Z,57.68
2017-03-16T10:15:51.340Z,57.67
2017-03-16T10:16:57.271Z,57.68
2017-03-16T10:18:03.179Z,57.67
2017-03-16T10:18:57.269Z,57.66
2017-03-16T10:19:53.003Z,57.65
2017-03-16T10:20:51.034Z,57.66
2017-03-16T10:21:44.920Z,57.65
2017-03-16T10:23:00.323Z,57.67
2017-03-16T10:23:56.752Z,57.68
2017-03-16T10:25:05.407Z,57.66
2017-03-16T10:25:49.831Z,57.65
2017-03-16T10:26:50.668Z,57.66
2017-03-16T10:27:51.011Z,56.76
2017-03-16T10:28:49.735Z,57.44
2017-03-16T10:29:56.862Z,57.55
2017-03-16T10:30:53.735Z,57.58
2017-03-16T10:32:06.912Z,57.61
2017-03-16T10:32:55.748Z,57.61
2017-03-16T10:33:51.561Z,57.62
2017-03-16T10:35:04.980Z,57.62
2017-03-16T10:35:54.407Z,57.62
2017-03-16T10:36:44.336Z,57.62
2017-03-16T10:37:49.506Z,57.62
2017-03-16T10:38:59.107Z,57.62
2017-03-16T10:39:59.991Z,57.62
2017-03-16T10:40:49.272Z,57.62
2017-03-16T10:41:57.628Z,57.62
2017-03-16T10:42:51.243Z,57.62
2017-03-16T10:43:57.084Z,57.62
2017-03-16T10:44:55.722Z,57.60
2017-03-16T10:46:03.433Z,57.60
2017-03-16T10:46:43.420Z,57.61
2017-03-16T10:47:51.240Z,57.59
2017-03-16T10:48:44.159Z,57.59
2017-03-16T10:49:54.070Z,57.58
2017-03-16T10:50:45.913Z,57.58
2017-03-16T10:51:48.802Z,57.58
2017-03-16T10:52:57.129Z,57.58
2017-03-16T10:53:51.558Z,57.58
2017-03-16T10:55:18.430Z,57.58
2017-03-16T10:55:57.068Z,57.57
2017-03-16T10:56:55.381Z,57.56
2017-03-16T10:57:58.578Z,57.56
2017-03-16T10:59:02.954Z,57.56
2017-03-16T11:00:07.553Z,57.56
2017-03-16T11:00:56.989Z,57.56
2017-03-16T11:01:57.347Z,57.56
2017-03-16T11:02:48.656Z,57.56
2017-03-16T11:03:59.224Z,57.55
2017-03-16T11:05:06.559Z,57.55
2017-03-16T11:06:26.806Z,57.54
2017-03-16T11:06:54.887Z,57.54
2017-03-16T11:08:00.655Z,57.54
2017-03-16T11:08:59.184Z,57.54
2017-03-16T11:09:43.823Z,57.54
2017-03-16T11:10:49.942Z,57.54
2017-03-16T11:11:54.676Z,57.53
2017-03-16T11:12:50.295Z,57.52
2017-03-16T11:13:54.811Z,57.54
2017-03-16T11:15:06.176Z,57.54
2017-03-16T11:15:55.160Z,57.52
2017-03-16T11:16:50.437Z,57.53
2017-03-16T11:18:01.836Z,57.53
2017-03-16T11:18:50.727Z,57.51
2017-03-16T11:20:01.147Z,57.52
2017-03-16T11:20:56.593Z,57.51
2017-03-16T11:23:13.252Z,56.58
2017-03-16T11:23:56.488Z,56.36
2017-03-16T11:24:45.842Z,56.29
2017-03-16T11:25:55.870Z,56.24
2017-03-16T11:26:46.992Z,56.19
2017-03-16T11:27:50.549Z,56.15
2017-03-16T11:29:02.673Z,56.13
2017-03-16T11:30:19.961Z,56.12
2017-03-16T11:30:53.235Z,56.09
2017-03-16T11:31:53.703Z,56.08
2017-03-16T11:32:44.427Z,56.07
2017-03-16T11:33:51.880Z,56.07
2017-03-16T11:34:49.712Z,56.06
2017-03-16T11:36:00.777Z,56.04
2017-03-16T11:36:54.565Z,56.03
2017-03-16T11:37:54.873Z,56.03
2017-03-16T11:38:50.275Z,56.01
2017-03-16T11:39:54.756Z,56.03
2017-03-16T11:40:50.814Z,56.02
2017-03-16T11:41:51.503Z,56.36
2017-03-16T11:42:46.562Z,56.90
2017-03-16T11:43:53.382Z,57.10
2017-03-16T11:44:48.981Z,57.19
2017-03-16T11:45:46.144Z,57.25
2017-03-16T11:46:50.948Z,57.28
2017-03-16T11:47:50.646Z,57.30
2017-03-16T11:48:57.042Z,57.32
2017-03-16T11:50:01.032Z,57.34
2017-03-16T11:50:46.160Z,57.35
2017-03-16T11:52:01.972Z,57.36
2017-03-16T11:52:54.841Z,57.35
2017-03-16T11:53:50.916Z,57.38
2017-03-16T11:54:42.885Z,57.38
2017-03-16T11:55:43.943Z,57.39
2017-03-16T11:56:48.440Z,57.38
2017-03-16T11:57:50.115Z,57.38
2017-03-16T11:58:54.751Z,57.38
2017-03-16T11:59:59.961Z,57.37
2017-03-16T12:00:49.055Z,57.38
2017-03-16T12:01:50.596Z,57.39
2017-03-16T12:02:51.214Z,57.38
2017-03-16T12:03:25.394Z,57.38
2017-03-16T12:04:50.030Z,57.39
2017-03-16T12:05:50.431Z,57.40
2017-03-16T12:06:49.176Z,57.38
2017-03-16T12:07:54.344Z,57.39
2017-03-16T12:08:20.967Z,57.37
2017-03-16T12:09:49.223Z,57.37
2017-03-16T12:10:45.496Z,57.38
2017-03-16T12:12:23.250Z,57.40
2017-03-16T12:13:49.704Z,57.32
2017-03-16T12:14:46.186Z,56.53
2017-03-16T12:15:58.259Z,57.17
2017-03-16T12:16:54.900Z,57.27
2017-03-16T12:17:45.229Z,57.31
2017-03-16T12:19:06.368Z,57.33
2017-03-16T12:20:10.752Z,57.35
2017-03-16T12:20:54.652Z,57.34
2017-03-16T12:21:51.544Z,57.34
2017-03-16T12:22:55.962Z,57.35
2017-03-16T12:23:55.306Z,57.34
2017-03-16T12:24:58.483Z,57.34
2017-03-16T12:25:45.796Z,57.35
2017-03-16T12:27:01.203Z,57.34
2017-03-16T12:27:50.031Z,57.35
2017-03-16T12:28:51.789Z,57.35
2017-03-16T12:29:55.231Z,57.34
2017-03-16T12:30:56.069Z,57.35
2017-03-16T12:31:50.705Z,57.34
2017-03-16T12:32:55.976Z,57.35
2017-03-16T12:33:50.655Z,57.36
2017-03-16T12:35:00.730Z,57.35
2017-03-16T12:36:06.831Z,57.35
2017-03-16T12:36:50.679Z,57.34
2017-03-16T12:37:45.808Z,57.35
2017-03-16T12:39:01.909Z,57.35
2017-03-16T12:39:51.562Z,57.34
2017-03-16T12:40:50.644Z,57.35
2017-03-16T12:41:44.837Z,57.32
2017-03-16T12:42:50.225Z,57.32
2017-03-16T12:43:56.386Z,57.33
2017-03-16T12:44:50.039Z,57.34
2017-03-16T12:45:57.420Z,57.33
2017-03-16T12:46:45.424Z,57.33
2017-03-16T12:47:50.009Z,57.32
2017-03-16T12:48:55.423Z,57.32
2017-03-16T12:49:58.327Z,57.33
2017-03-16T12:50:44.530Z,57.32
2017-03-16T12:51:49.612Z,57.33
2017-03-16T12:52:55.230Z,57.32
2017-03-16T12:53:59.357Z,57.33
2017-03-16T12:54:44.255Z,57.31
2017-03-16T12:55:55.866Z,57.32
2017-03-16T12:56:50.912Z,57.31